Time;durP1;ratioP1;P1;durP2;ratioP2;P2;SDS_P1;SDS_P2;PMS_P1;PMS_P2;Temp;Humidity;BMP_temperature;BMP_pressure;BME280_temperature;BME280_humidity;BME280_pressure;Samples;Min_cycle;Max_cycle;Signal;HPM_P1;HPM_P2
2024/01/10 00:02:03;;;;;;;2.00;1.90;;;;;;;-0.58;64.78;101048.22;4963106;28;20034;-68
2024/01/10 00:04:29;;;;;;;2.00;1.90;;;;;;;-0.59;64.45;101041.22;4967744;28;20031;-70
2024/01/10 00:06:54;;;;;;;1.70;1.70;;;;;;;-0.52;64.31;101053.63;4964441;28;20030;-71
2024/01/10 00:09:20;;;;;;;1.90;1.80;;;;;;;-0.61;63.75;101024.59;4958493;28;20443;-70
2024/01/10 00:11:45;;;;;;;1.70;1.70;;;;;;;-0.54;64.14;101037.00;4949770;29;20078;-69
2024/01/10 00:14:11;;;;;;;1.90;1.80;;;;;;;-0.49;62.62;101038.03;4949521;28;20042;-69
2024/01/10 00:16:36;;;;;;;1.90;1.80;;;;;;;-0.50;62.78;101031.03;4967317;28;20041;-70
2024/01/10 00:19:02;;;;;;;2.00;1.90;;;;;;;-0.54;62.49;101039.63;4953894;28;20170;-71
2024/01/10 00:21:28;;;;;;;1.70;1.70;;;;;;;-0.55;62.85;101024.81;4971388;28;20046;-70
2024/01/10 00:23:53;;;;;;;1.70;1.70;;;;;;;-0.59;62.31;101014.19;4966459;28;20091;-70
2024/01/10 00:26:19;;;;;;;2.10;2.00;;;;;;;-0.62;62.12;101019.34;4960323;28;20027;-70
2024/01/10 00:28:46;;;;;;;1.92;1.83;;;;;;;-0.57;62.06;101016.03;4957078;28;20025;-70
2024/01/10 00:31:12;;;;;;;1.70;1.70;;;;;;;-0.55;61.73;101011.75;4966264;28;20031;-70
2024/01/10 00:33:37;;;;;;;2.00;1.90;;;;;;;-0.57;61.44;101010.81;4958406;28;20693;-70
2024/01/10 00:36:03;;;;;;;1.85;1.80;;;;;;;-0.56;62.02;101007.34;4951960;28;20046;-70
2024/01/10 00:38:28;;;;;;;2.00;1.90;;;;;;;-0.59;62.35;101009.88;4956050;28;20026;-71
2024/01/10 00:40:53;;;;;;;1.83;1.77;;;;;;;-0.54;61.83;101013.50;4968359;28;20475;-71
2024/01/10 00:43:19;;;;;;;2.00;1.90;;;;;;;-0.53;61.62;101010.03;4969451;28;20030;-70
2024/01/10 00:45:44;;;;;;;1.80;1.80;;;;;;;-0.53;62.54;101003.94;4965737;28;20171;-71
2024/01/10 00:48:09;;;;;;;1.80;1.80;;;;;;;-0.72;62.62;100962.47;4970788;28;20538;-71
2024/01/10 00:50:35;;;;;;;1.70;1.70;;;;;;;-0.42;62.94;101007.72;4956127;28;20027;-70
2024/01/10 00:53:00;;;;;;;2.00;1.90;;;;;;;-0.41;62.87;101010.38;4953532;28;20037;-70
2024/01/10 00:55:26;;;;;;;1.80;1.70;;;;;;;-0.37;62.30;101004.38;4947992;28;20042;-70
2024/01/10 00:57:51;;;;;;;1.90;1.80;;;;;;;-0.32;62.57;101010.63;4961934;28;20634;-69
2024/01/10 01:00:16;;;;;;;1.90;1.80;;;;;;;-0.33;62.60;101006.22;4968051;28;20078;-70
2024/01/10 01:02:42;;;;;;;1.95;1.85;;;;;;;-0.82;62.94;100919.56;4959470;28;20042;-70
2024/01/10 01:05:07;;;;;;;2.00;1.90;;;;;;;-0.31;63.42;101004.53;4964357;28;20098;-69
2024/01/10 01:07:33;;;;;;;1.90;1.80;;;;;;;-0.24;63.13;101003.88;4965627;28;20086;-66
2024/01/10 01:09:59;;;;;;;2.00;1.90;;;;;;;-0.23;63.01;100994.31;4964455;28;20039;-70
2024/01/10 01:12:25;;;;;;;1.85;1.80;;;;;;;-0.30;61.49;101001.06;4958577;28;20586;-69
2024/01/10 01:14:50;;;;;;;2.00;1.90;;;;;;;-0.20;61.44;101000.47;4963021;28;20022;-69
2024/01/10 01:17:16;;;;;;;1.90;1.80;;;;;;;-0.20;62.44;100990.00;4964374;28;20102;-69
2024/01/10 01:19:41;;;;;;;1.90;1.80;;;;;;;-0.19;61.25;101002.25;4948536;28;20786;-70
2024/01/10 01:22:07;;;;;;;1.80;1.80;;;;;;;-0.20;60.66;100995.25;4967884;28;20027;-69
2024/01/10 01:24:32;;;;;;;1.90;1.80;;;;;;;-0.18;60.93;100987.44;4949049;28;20026;-69
2024/01/10 01:26:58;;;;;;;1.70;1.70;;;;;;;-0.12;60.29;100998.97;4967559;28;20035;-69
2024/01/10 01:29:23;;;;;;;2.00;1.90;;;;;;;-0.12;61.21;100998.97;4968857;28;20056;-69
2024/01/10 01:31:50;;;;;;;1.88;1.77;;;;;;;-0.10;60.53;101009.47;4964202;28;20038;-70
2024/01/10 01:34:15;;;;;;;1.70;1.70;;;;;;;-0.19;60.40;100991.81;4967114;28;20031;-70
2024/01/10 01:36:40;;;;;;;2.10;2.00;;;;;;;-0.09;61.35;100996.44;4957938;28;20042;-70
2024/01/10 01:39:06;;;;;;;1.73;1.73;;;;;;;-0.06;61.04;101001.72;4947500;29;20023;-69
2024/01/10 01:41:31;;;;;;;1.63;1.63;;;;;;;-0.08;61.46;101006.03;4963574;28;20034;-69
2024/01/10 01:43:57;;;;;;;2.03;1.92;;;;;;;-0.05;60.50;100997.41;4949044;28;20031;-70
2024/01/10 01:46:23;;;;;;;2.00;1.90;;;;;;;0.00;61.98;101001.88;4950139;28;20026;-69
2024/01/10 01:48:49;;;;;;;1.70;1.70;;;;;;;-0.03;61.23;101009.63;4963939;28;20145;-70
2024/01/10 01:51:17;;;;;;;1.75;1.75;;;;;;;-0.07;61.88;101004.31;4969076;28;20517;-70
2024/01/10 01:53:44;;;;;;;1.92;1.83;;;;;;;-0.07;61.15;101007.78;4965340;28;20046;-70
2024/01/10 01:56:10;;;;;;;1.90;1.80;;;;;;;-0.07;60.37;101001.69;4936271;29;20043;-64
2024/01/10 01:58:37;;;;;;;1.70;1.70;;;;;;;-0.08;61.15;101000.78;4948734;29;20027;-64
2024/01/10 02:01:04;;;;;;;1.80;1.80;;;;;;;-0.08;60.71;100997.28;4955528;28;20125;-64
2024/01/10 02:03:33;;;;;;;1.90;1.80;;;;;;;-0.06;60.22;100998.22;4968968;28;20030;-64
2024/01/10 02:06:03;;;;;;;2.00;1.90;;;;;;;-0.09;61.17;100999.03;4969019;28;20035;-63
2024/01/10 02:08:35;;;;;;;1.90;1.80;;;;;;;-0.13;60.13;101002.41;4950831;28;20034;-63
2024/01/10 02:11:02;;;;;;;1.85;1.77;;;;;;;-0.19;60.61;101001.38;4951488;28;20035;-65
2024/01/10 02:13:28;;;;;;;1.60;1.60;;;;;;;-0.19;60.75;101004.88;4949902;29;20514;-64
2024/01/10 02:15:54;;;;;;;2.00;1.90;;;;;;;-0.17;60.38;101000.56;4948513;29;20654;-64
2024/01/10 02:18:20;;;;;;;2.00;1.90;;;;;;;-0.08;60.68;101008.63;4950914;28;20745;-64
2024/01/10 02:20:46;;;;;;;1.77;1.77;;;;;;;-0.10;60.10;101014.69;4979266;28;20034;-65
2024/01/10 02:23:12;;;;;;;2.10;2.00;;;;;;;-0.24;59.52;101005.59;4985172;28;20117;-64
2024/01/10 02:25:38;;;;;;;1.90;1.80;;;;;;;-0.17;59.88;101008.41;4964496;28;20026;-64
2024/01/10 02:28:04;;;;;;;2.00;1.90;;;;;;;-0.07;60.21;101013.00;4983462;28;20113;-65
2024/01/10 02:30:30;;;;;;;1.75;1.75;;;;;;;-0.33;61.23;100960.94;4966707;28;20186;-64
2024/01/10 02:32:55;;;;;;;1.95;1.85;;;;;;;-0.09;60.14;101009.50;4931398;29;20035;-65
2024/01/10 02:35:21;;;;;;;2.00;1.90;;;;;;;-0.05;60.39;101007.84;4966576;28;20034;-64
2024/01/10 02:37:46;;;;;;;1.90;1.80;;;;;;;-0.06;59.81;101008.69;4936470;29;20038;-64
2024/01/10 02:40:12;;;;;;;2.08;1.98;;;;;;;0.01;59.94;101008.00;4947590;29;20093;-65
2024/01/10 02:42:39;;;;;;;1.90;1.80;;;;;;;-0.39;59.90;100932.91;4955814;28;20026;-64
2024/01/10 02:45:05;;;;;;;1.85;1.77;;;;;;;0.02;60.69;101006.28;4966456;28;20023;-66
2024/01/10 02:47:30;;;;;;;1.83;1.75;;;;;;;-0.12;59.82;100961.47;4965393;28;20029;-66
2024/01/10 02:49:56;;;;;;;1.75;1.73;;;;;;;-0.26;59.50;100937.59;4948021;28;20474;-64
2024/01/10 02:52:21;;;;;;;1.70;1.70;;;;;;;-0.03;59.81;100983.50;4950839;28;20033;-65
2024/01/10 02:54:46;;;;;;;1.90;1.80;;;;;;;-0.19;59.82;100954.31;4963684;28;20091;-65
2024/01/10 02:57:13;;;;;;;2.00;1.90;;;;;;;0.04;59.27;100987.16;4950522;28;20039;-64
2024/01/10 02:59:38;;;;;;;1.90;1.80;;;;;;;0.06;59.33;100992.41;4965894;28;20079;-64
2024/01/10 03:02:03;;;;;;;1.70;1.70;;;;;;;-0.11;59.89;100964.13;4972054;28;20038;-65
2024/01/10 03:04:29;;;;;;;1.92;1.83;;;;;;;0.03;59.37;100994.09;4970011;28;20474;-70
2024/01/10 03:06:54;;;;;;;1.92;1.83;;;;;;;-0.37;59.85;100912.03;4976340;28;20047;-70
2024/01/10 03:09:20;;;;;;;1.70;1.70;;;;;;;0.10;60.42;100995.13;4951372;28;20111;-70
2024/01/10 03:11:45;;;;;;;1.80;1.80;;;;;;;0.12;60.59;100993.44;4947598;29;20122;-71
2024/01/10 03:14:11;;;;;;;1.65;1.65;;;;;;;-0.12;60.20;100977.16;4950524;28;20034;-71
2024/01/10 03:16:37;;;;;;;1.73;1.73;;;;;;;0.05;60.25;101012.44;4948359;29;20038;-70
2024/01/10 03:19:03;;;;;;;1.70;1.70;;;;;;;0.10;60.30;101012.56;4948054;29;20566;-70
2024/01/10 03:21:29;;;;;;;1.70;1.70;;;;;;;0.11;60.09;101011.72;4964612;28;20094;-70
2024/01/10 03:23:56;;;;;;;1.90;1.80;;;;;;;-0.28;60.54;100936.66;4949916;28;20019;-70
2024/01/10 03:26:22;;;;;;;1.88;1.80;;;;;;;0.12;60.32;100995.16;4958735;28;20027;-70
2024/01/10 03:28:48;;;;;;;1.70;1.70;;;;;;;0.16;60.84;101000.53;4930719;29;20049;-70
2024/01/10 03:31:14;;;;;;;2.00;1.90;;;;;;;0.18;61.13;101008.41;4946698;28;20034;-70
2024/01/10 03:33:39;;;;;;;1.67;1.67;;;;;;;0.22;60.98;100995.44;4965136;28;20035;-70
2024/01/10 03:36:06;;;;;;;1.90;1.80;;;;;;;0.25;61.32;100995.50;4949913;28;20504;-70
2024/01/10 03:38:32;;;;;;;1.90;1.80;;;;;;;0.26;60.95;100985.94;4964252;28;20058;-70
2024/01/10 03:40:57;;;;;;;1.75;1.75;;;;;;;0.34;61.26;100997.47;4968850;28;20146;-70
2024/01/10 03:43:22;;;;;;;1.67;1.67;;;;;;;0.34;61.54;100992.22;4952311;28;20030;-70
2024/01/10 03:45:48;;;;;;;1.60;1.60;;;;;;;0.37;61.84;100989.69;4954092;28;20403;-70
2024/01/10 03:48:13;;;;;;;1.95;1.85;;;;;;;0.37;61.64;100993.19;4953377;28;20038;-69
2024/01/10 03:50:39;;;;;;;1.73;1.73;;;;;;;0.35;61.58;101002.72;4968357;28;20062;-70
2024/01/10 03:53:04;;;;;;;1.50;1.50;;;;;;;0.31;61.74;101000.91;4978964;28;20030;-69
2024/01/10 03:55:29;;;;;;;1.60;1.60;;;;;;;0.27;62.00;100998.16;4978123;28;20031;-70
2024/01/10 03:57:56;;;;;;;1.70;1.70;;;;;;;0.24;62.81;100998.97;4950415;28;20048;-70
2024/01/10 04:00:22;;;;;;;1.83;1.80;;;;;;;0.20;62.64;101001.50;4949008;29;20536;-70
2024/01/10 04:02:47;;;;;;;1.70;1.70;;;;;;;0.16;63.08;101003.16;4951799;28;20039;-70
2024/01/10 04:05:13;;;;;;;1.50;1.50;;;;;;;0.13;63.78;101000.47;4950417;29;20027;-70
2024/01/10 04:07:43;;;;;;;1.90;1.80;;;;;;;0.06;63.00;101006.38;4953241;28;20487;-70
2024/01/10 04:10:10;;;;;;;1.90;1.80;;;;;;;0.06;62.75;101005.47;4971356;28;20159;-71
2024/01/10 04:12:38;;;;;;;1.73;1.73;;;;;;;0.05;63.85;101019.41;4971384;28;20030;-70
2024/01/10 04:15:04;;;;;;;1.63;1.63;;;;;;;0.07;63.65;101007.28;4971979;28;20035;-70
2024/01/10 04:17:30;;;;;;;1.52;1.52;;;;;;;0.03;63.87;101009.78;4963835;28;20062;-70
2024/01/10 04:19:56;;;;;;;1.60;1.60;;;;;;;-0.31;62.93;100967.94;4984978;28;20129;-70
2024/01/10 04:22:21;;;;;;;1.63;1.63;;;;;;;-0.07;62.76;101004.31;4988870;28;20089;-70
2024/01/10 04:24:47;;;;;;;2.00;1.90;;;;;;;-0.08;63.01;101002.50;4986527;28;20037;-70
2024/01/10 04:27:12;;;;;;;1.70;1.70;;;;;;;-0.12;63.28;101004.19;4979068;28;20477;-71
2024/01/10 04:29:37;;;;;;;1.90;1.80;;;;;;;-0.09;63.92;101008.59;4970425;28;20039;-70
2024/01/10 04:32:03;;;;;;;1.70;1.70;;;;;;;-0.09;63.68;101003.38;4951301;28;20178;-70
2024/01/10 04:34:29;;;;;;;2.00;1.90;;;;;;;-0.09;63.51;101003.38;4958424;28;20031;-70
2024/01/10 04:36:54;;;;;;;1.60;1.60;;;;;;;-0.07;63.64;101002.56;4949765;29;20043;-69
2024/01/10 04:39:19;;;;;;;1.70;1.70;;;;;;;-0.56;63.68;100910.66;4956599;28;20114;-70
2024/01/10 04:41:45;;;;;;;1.80;1.80;;;;;;;-0.39;63.36;100943.34;4969218;28;20038;-69
2024/01/10 04:44:11;;;;;;;1.83;1.80;;;;;;;-0.13;63.10;101002.41;4967998;28;20513;-71
2024/01/10 04:46:36;;;;;;;1.65;1.65;;;;;;;-0.09;63.11;101004.28;4952526;28;20046;-70
2024/01/10 04:49:02;;;;;;;1.70;1.70;;;;;;;-0.10;63.66;101005.09;4949664;29;20585;-70
2024/01/10 04:51:27;;;;;;;1.90;1.80;;;;;;;-0.08;64.36;101000.78;4949153;28;20523;-70
2024/01/10 04:53:52;;;;;;;1.60;1.60;;;;;;;-0.09;63.96;100993.81;4960877;28;20809;-70
2024/01/10 04:56:18;;;;;;;2.00;1.90;;;;;;;-0.08;63.36;100999.91;4948994;28;20519;-70
2024/01/10 04:58:43;;;;;;;1.90;1.80;;;;;;;-0.11;64.04;100995.50;4980633;28;20034;-70
2024/01/10 05:01:09;;;;;;;2.00;1.90;;;;;;;-0.37;64.19;100965.19;4968853;28;20532;-71
2024/01/10 05:03:35;;;;;;;1.90;1.80;;;;;;;-0.14;63.55;101000.66;4981284;28;20109;-71
2024/01/10 05:06:01;;;;;;;2.00;1.90;;;;;;;-0.18;63.72;100990.94;4989850;28;20430;-68
2024/01/10 05:08:26;;;;;;;2.00;1.90;;;;;;;-0.35;64.76;100967.84;4987858;28;20056;-71
2024/01/10 05:10:51;;;;;;;1.70;1.70;;;;;;;-0.21;63.39;101003.94;4963233;28;20023;-69
2024/01/10 05:13:17;;;;;;;1.90;1.80;;;;;;;-0.17;63.71;101010.13;4969652;28;20027;-69
2024/01/10 05:15:42;;;;;;;1.70;1.70;;;;;;;-0.17;64.22;101002.28;4947777;28;20388;-69
2024/01/10 05:18:08;;;;;;;1.60;1.60;;;;;;;-0.19;63.72;100997.03;4968585;28;20036;-69
2024/01/10 05:20:33;;;;;;;1.83;1.80;;;;;;;-0.19;64.22;100994.41;4968714;28;20407;-70
2024/01/10 05:22:59;;;;;;;1.70;1.70;;;;;;;-0.16;64.72;100998.81;4968912;28;20077;-69
2024/01/10 05:25:24;;;;;;;1.90;1.80;;;;;;;-0.20;64.53;100995.25;4957690;28;20506;-69
2024/01/10 05:27:50;;;;;;;1.60;1.60;;;;;;;-0.21;65.00;100992.59;4932850;28;20123;-70
2024/01/10 05:30:16;;;;;;;1.90;1.80;;;;;;;-0.27;64.21;101009.03;4950943;28;20031;-70
2024/01/10 05:32:43;;;;;;;1.90;1.80;;;;;;;-0.26;63.98;101000.31;4933000;29;20047;-70
2024/01/10 05:35:10;;;;;;;1.70;1.70;;;;;;;-0.28;65.64;101001.16;4952593;28;20031;-70
2024/01/10 05:37:36;;;;;;;1.70;1.70;;;;;;;-0.82;65.21;100916.03;4950135;29;20031;-71
2024/01/10 05:40:01;;;;;;;1.70;1.70;;;;;;;-0.36;66.24;101010.47;4953622;28;20489;-70
2024/01/10 05:42:27;;;;;;;1.70;1.70;;;;;;;-0.42;66.04;101005.09;4968143;28;20093;-70
2024/01/10 05:44:52;;;;;;;1.73;1.73;;;;;;;-0.47;65.96;100999.75;4979395;28;20057;-71
2024/01/10 05:47:17;;;;;;;1.90;1.80;;;;;;;-0.46;66.41;100996.28;4966751;28;20033;-70
2024/01/10 05:49:43;;;;;;;2.00;1.90;;;;;;;-0.52;65.69;100995.25;4967857;28;20562;-70
2024/01/10 05:52:09;;;;;;;2.00;1.90;;;;;;;-0.62;65.11;101001.94;4942737;29;20091;-70
2024/01/10 05:54:34;;;;;;;2.10;2.00;;;;;;;-0.63;66.75;100999.31;4949579;28;20023;-69
2024/01/10 05:57:02;;;;;;;1.70;1.70;;;;;;;-0.68;67.23;100999.19;4953804;28;20107;-70
2024/01/10 05:59:28;;;;;;;2.08;1.98;;;;;;;-0.68;66.69;101013.97;4954241;28;20030;-70
2024/01/10 06:01:54;;;;;;;1.90;1.80;;;;;;;-0.75;67.92;101007.69;4946033;29;20046;-70
2024/01/10 06:04:19;;;;;;;1.90;1.80;;;;;;;-0.79;68.34;101008.41;4948807;28;20038;-70
2024/01/10 06:06:45;;;;;;;1.77;1.77;;;;;;;-0.82;68.72;101003.13;4932145;29;20023;-70
2024/01/10 06:09:11;;;;;;;1.70;1.70;;;;;;;-0.87;68.81;101001.22;4949757;29;20023;-70
2024/01/10 06:11:45;;;;;;;1.63;1.63;;;;;;;-0.90;69.43;100996.78;4941522;29;20031;-70
2024/01/10 06:14:10;;;;;;;1.90;1.80;;;;;;;-0.98;70.02;101002.63;4949618;29;20027;-70
2024/01/10 06:16:36;;;;;;;2.10;2.00;;;;;;;-1.03;69.84;100999.91;4919431;29;20035;-70
2024/01/10 06:19:01;;;;;;;2.10;2.00;;;;;;;-1.12;69.92;100988.31;4947685;28;20440;-71
2024/01/10 06:21:26;;;;;;;1.70;1.70;;;;;;;-1.13;70.53;101000.47;4945809;29;20170;-70
2024/01/10 06:23:52;;;;;;;1.90;1.80;;;;;;;-1.19;71.01;100989.84;4949294;29;20127;-70
2024/01/10 06:26:18;;;;;;;1.90;1.80;;;;;;;-1.18;72.32;101007.28;4922526;29;20033;-71
2024/01/10 06:28:43;;;;;;;1.90;1.80;;;;;;;-1.21;72.29;101012.41;4948412;28;20791;-71
2024/01/10 06:31:08;;;;;;;1.90;1.80;;;;;;;-1.23;72.65;101011.47;4926645;29;20031;-69
2024/01/10 06:33:34;;;;;;;1.95;1.85;;;;;;;-1.26;72.32;101016.59;4947510;29;20159;-68
2024/01/10 06:35:59;;;;;;;2.00;1.90;;;;;;;-1.28;72.58;101017.41;4929576;29;20043;-70
2024/01/10 06:38:24;;;;;;;1.88;1.80;;;;;;;-1.32;73.13;101029.47;4947594;29;20067;-71
2024/01/10 06:40:50;;;;;;;1.88;1.80;;;;;;;-1.34;73.19;101023.31;4944645;29;20023;-70
2024/01/10 06:43:16;;;;;;;2.10;2.00;;;;;;;-1.41;73.24;101026.56;4947860;29;20042;-71
2024/01/10 06:45:42;;;;;;;2.00;1.90;;;;;;;-1.45;74.39;101022.97;4938208;29;20511;-71
2024/01/10 06:48:08;;;;;;;2.00;1.90;;;;;;;-1.47;74.32;101032.47;4928188;29;20420;-70
2024/01/10 06:50:33;;;;;;;2.00;1.90;;;;;;;-1.56;74.91;101032.19;4928755;29;20042;-71
2024/01/10 06:52:59;;;;;;;2.00;1.90;;;;;;;-1.60;75.35;101029.44;4945513;29;20039;-71
2024/01/10 06:55:25;;;;;;;2.00;1.90;;;;;;;-1.73;75.47;101012.50;4939912;29;20028;-70
2024/01/10 06:57:52;;;;;;;2.10;2.00;;;;;;;-1.64;75.97;101038.00;4930437;28;20083;-71
2024/01/10 07:00:21;;;;;;;2.10;2.00;;;;;;;-1.72;76.40;101029.03;4951699;28;20049;-70
2024/01/10 07:02:46;;;;;;;2.10;2.00;;;;;;;-2.23;76.61;100951.75;4929212;29;20031;-71
2024/01/10 07:05:12;;;;;;;2.10;2.00;;;;;;;-1.74;77.29;101039.41;4939148;28;20631;-71
2024/01/10 07:07:37;;;;;;;2.10;2.00;;;;;;;-1.73;76.97;101042.94;4933610;29;20054;-70
2024/01/10 07:10:06;;;;;;;2.00;1.90;;;;;;;-1.86;76.48;101025.97;4937812;29;20035;-71
2024/01/10 07:12:33;;;;;;;2.10;2.00;;;;;;;-1.79;77.26;101040.09;4916979;29;20107;-72
2024/01/10 07:14:59;;;;;;;2.00;1.90;;;;;;;-1.78;77.64;101040.16;4949421;28;20031;-71
2024/01/10 07:17:24;;;;;;;2.20;2.10;;;;;;;-1.80;77.62;101041.84;4944565;29;20496;-69
2024/01/10 07:19:49;;;;;;;2.10;2.00;;;;;;;-1.80;77.39;101048.75;4950831;29;20035;-70
2024/01/10 07:22:15;;;;;;;2.10;2.00;;;;;;;-1.82;77.89;101050.44;4951935;28;20031;-71
2024/01/10 07:24:40;;;;;;;2.20;2.10;;;;;;;-1.85;77.65;101055.53;4950586;29;20064;-71
2024/01/10 07:27:09;;;;;;;2.10;2.00;;;;;;;-1.88;78.10;101061.53;4951133;29;20551;-70
2024/01/10 07:29:35;;;;;;;2.05;1.95;;;;;;;-1.89;78.44;101056.25;4948112;29;20059;-68
2024/01/10 07:32:00;;;;;;;2.03;1.92;;;;;;;-1.92;78.52;101050.97;4950061;29;20039;-70
2024/01/10 07:34:26;;;;;;;2.00;1.90;;;;;;;-1.93;78.57;101059.63;4943371;29;20047;-71
2024/01/10 07:36:52;;;;;;;2.10;2.00;;;;;;;-1.93;78.65;101065.72;4946691;29;20028;-71
2024/01/10 07:39:20;;;;;;;2.10;2.00;;;;;;;-1.97;79.37;101057.72;4948001;29;20038;-70
2024/01/10 07:41:46;;;;;;;2.00;1.90;;;;;;;-1.93;79.12;101070.94;4920461;29;20041;-71
2024/01/10 07:44:12;;;;;;;2.10;2.00;;;;;;;-1.92;79.94;101071.81;4949239;29;20479;-70
2024/01/10 07:46:38;;;;;;;2.00;1.90;;;;;;;-2.17;80.19;101020.56;4946551;29;20096;-71
2024/01/10 07:49:06;;;;;;;2.08;1.98;;;;;;;-1.86;80.36;101072.03;4950616;28;20070;-70
2024/01/10 07:51:32;;;;;;;2.20;2.10;;;;;;;-1.80;80.35;101078.34;4947649;28;20447;-72
2024/01/10 07:53:59;;;;;;;2.30;2.20;;;;;;;-1.77;80.30;101078.44;4951176;28;20059;-71
2024/01/10 07:56:24;;;;;;;2.20;2.10;;;;;;;-1.72;80.04;101087.31;4950595;28;20062;-70
2024/01/10 07:58:51;;;;;;;2.40;2.30;;;;;;;-1.67;80.49;101085.72;4958167;28;20039;-70
2024/01/10 08:01:17;;;;;;;2.10;2.00;;;;;;;-1.68;82.22;101044.81;4963792;28;20751;-71
2024/01/10 08:03:42;;;;;;;2.20;2.10;;;;;;;-0.95;83.31;101068.88;4961972;28;20858;-71
2024/01/10 08:06:08;;;;;;;2.00;1.90;;;;;;;-0.65;80.69;101066.28;4938698;28;20526;-71
2024/01/10 08:08:33;;;;;;;2.10;2.00;;;;;;;-0.36;79.99;101068.88;4964326;28;20026;-69
2024/01/10 08:10:59;;;;;;;2.00;1.90;;;;;;;-0.09;78.50;101072.25;4961970;28;20035;-71
2024/01/10 08:13:24;;;;;;;1.70;1.70;;;;;;;0.08;78.03;101064.84;4963704;28;20027;-69
2024/01/10 08:15:49;;;;;;;2.00;1.90;;;;;;;0.34;76.68;101065.50;4965658;28;20034;-71
2024/01/10 08:18:15;;;;;;;1.90;1.80;;;;;;;0.50;73.71;101054.53;4962344;28;20036;-71
2024/01/10 08:20:40;;;;;;;1.70;1.70;;;;;;;0.62;71.21;101070.56;4961998;28;20069;-71
2024/01/10 08:23:06;;;;;;;1.90;1.80;;;;;;;0.34;70.10;101076.84;4967773;28;20069;-70
2024/01/10 08:25:31;;;;;;;1.70;1.70;;;;;;;-0.42;69.73;100987.72;4965503;28;20702;-71
2024/01/10 08:27:57;;;;;;;1.70;1.70;;;;;;;-0.01;69.92;101081.19;4969427;28;20034;-71
2024/01/10 08:30:24;;;;;;;1.70;1.70;;;;;;;-0.07;70.35;101088.84;4965733;28;20023;-71
2024/01/10 08:32:50;;;;;;;1.90;1.80;;;;;;;-0.66;70.69;101013.16;4967406;28;20058;-71
2024/01/10 08:35:16;;;;;;;1.70;1.70;;;;;;;-0.15;70.93;101086.88;4964920;28;20031;-70
2024/01/10 08:37:42;;;;;;;1.80;1.80;;;;;;;-0.18;70.78;101092.91;4957707;28;20695;-72
2024/01/10 08:40:11;;;;;;;1.70;1.70;;;;;;;-0.13;71.52;101095.63;4968150;28;20042;-72
2024/01/10 08:42:40;;;;;;;2.00;1.90;;;;;;;-0.07;71.24;101087.97;4968495;28;20055;-69
2024/01/10 08:45:09;;;;;;;2.00;1.90;;;;;;;-0.13;71.76;101057.31;4967769;28;20037;-71
2024/01/10 08:47:34;;;;;;;1.60;1.60;;;;;;;0.22;70.85;101083.47;4962657;28;20065;-70
2024/01/10 08:50:01;;;;;;;1.50;1.50;;;;;;;-0.17;69.97;101000.56;4966730;28;20113;-71
2024/01/10 08:52:27;;;;;;;1.70;1.70;;;;;;;0.56;70.23;101083.50;4966834;28;20373;-71
2024/01/10 08:54:52;;;;;;;1.90;1.80;;;;;;;0.78;70.42;101077.91;4949231;28;20587;-72
2024/01/10 08:57:18;;;;;;;1.70;1.70;;;;;;;1.08;69.89;101083.84;4957101;28;20491;-72
2024/01/10 08:59:44;;;;;;;1.50;1.50;;;;;;;2.16;69.95;101087.78;4949292;29;20130;-71
2024/01/10 09:02:09;;;;;;;1.60;1.60;;;;;;;4.39;63.62;101075.09;4951491;28;20064;-71
2024/01/10 09:04:35;;;;;;;1.23;1.23;;;;;;;6.47;54.67;101070.00;4949109;29;20023;-70
2024/01/10 09:07:00;;;;;;;1.20;1.20;;;;;;;8.29;47.99;101071.28;4946804;28;20475;-72
2024/01/10 09:09:25;;;;;;;1.00;1.00;;;;;;;9.25;44.73;101032.41;4950410;28;20073;-74
2024/01/10 09:11:51;;;;;;;1.00;1.00;;;;;;;10.38;42.11;101076.97;4947680;29;20079;-75
2024/01/10 09:14:16;;;;;;;0.98;0.98;;;;;;;10.20;39.80;101049.78;4952849;28;20031;-75
2024/01/10 09:16:42;;;;;;;0.80;0.80;;;;;;;10.18;39.95;101087.03;4928297;29;20042;-78
2024/01/10 09:19:07;;;;;;;0.80;0.80;;;;;;;10.18;39.07;101086.16;4948035;29;20030;-79
2024/01/10 09:21:33;;;;;;;0.88;0.88;;;;;;;10.16;39.38;101075.56;4949115;29;20063;-80
2024/01/10 09:23:58;;;;;;;0.90;0.90;;;;;;;9.81;39.03;101083.06;4948680;29;20059;-74
2024/01/10 09:26:24;;;;;;;0.75;0.75;;;;;;;9.46;39.15;101087.91;4933947;29;20042;-78
2024/01/10 09:28:49;;;;;;;0.90;0.90;;;;;;;9.63;39.86;101087.72;4935403;29;20118;-78
2024/01/10 09:31:15;;;;;;;0.90;0.90;;;;;;;10.60;38.87;101083.75;4928833;29;20035;-75
2024/01/10 09:33:40;;;;;;;0.90;0.90;;;;;;;11.76;37.01;101083.44;4949536;29;20031;-76
2024/01/10 09:36:06;;;;;;;0.80;0.80;;;;;;;12.85;35.76;101071.13;4947542;28;20054;-75
2024/01/10 09:38:37;;;;;;;0.80;0.80;;;;;;;13.01;34.85;101077.88;4946120;28;20039;-72
2024/01/10 09:41:04;;;;;;;0.80;0.80;;;;;;;13.57;33.06;101084.38;4937113;29;20054;-74
2024/01/10 09:43:35;;;;;;;0.80;0.80;;;;;;;12.89;33.94;101086.16;4946504;28;20131;-76
2024/01/10 09:46:04;;;;;;;0.80;0.80;;;;;;;12.04;34.14;101100.63;4950655;28;20037;-70
2024/01/10 09:48:30;;;;;;;0.80;0.80;;;;;;;11.49;35.24;101062.63;4940090;29;20082;-75
2024/01/10 09:50:56;;;;;;;0.70;0.70;;;;;;;11.43;35.54;101092.06;4939627;29;20110;-73
2024/01/10 09:53:23;;;;;;;0.80;0.80;;;;;;;11.13;34.87;101092.59;4945216;29;20114;-75
2024/01/10 09:55:49;;;;;;;0.80;0.80;;;;;;;10.99;36.35;101091.97;4941559;28;20125;-74
2024/01/10 09:58:15;;;;;;;0.70;0.70;;;;;;;11.56;35.83;101096.25;4970223;28;20697;-75
2024/01/10 10:00:41;;;;;;;0.70;0.70;;;;;;;11.58;35.69;101099.75;4974943;28;20061;-76
2024/01/10 10:03:13;;;;;;;0.73;0.73;;;;;;;11.24;35.78;101093.28;4966843;28;20026;-75
2024/01/10 10:05:41;;;;;;;0.80;0.80;;;;;;;10.90;36.20;101092.13;4968019;28;20030;-75
2024/01/10 10:08:09;;;;;;;0.80;0.80;;;;;;;10.62;37.06;101070.41;4986637;28;20105;-76
2024/01/10 10:10:35;;;;;;;0.73;0.73;;;;;;;10.71;36.42;101099.53;4985820;28;20105;-75
2024/01/10 10:13:00;;;;;;;0.70;0.70;;;;;;;10.78;35.99;101098.53;4982585;28;20034;-74
2024/01/10 10:15:26;;;;;;;0.73;0.73;;;;;;;10.41;36.92;101076.94;4988033;28;20022;-75
2024/01/10 10:17:53;;;;;;;0.80;0.80;;;;;;;11.33;36.02;101088.69;4995759;28;20026;-77
2024/01/10 10:20:27;;;;;;;0.60;0.60;;;;;;;11.98;35.07;101094.53;4987473;28;20030;-78
2024/01/10 10:23:01;;;;;;;;;;;;;;;12.44;35.48;101085.47;5001416;28;20675;-77
2024/01/10 10:25:30;;;;;;;0.77;0.77;;;;;;;12.98;33.22;101094.81;4973286;28;19962;-78
2024/01/10 10:27:56;;;;;;;0.80;0.80;;;;;;;13.05;33.43;101061.72;4964808;28;20088;-77
2024/01/10 10:30:22;;;;;;;0.70;0.70;;;;;;;13.67;32.38;101091.22;4973310;28;20034;-74
2024/01/10 10:32:48;;;;;;;0.80;0.80;;;;;;;13.72;31.44;101105.34;4985579;28;20117;-74
2024/01/10 10:35:13;;;;;;;0.80;0.80;;;;;;;12.45;33.24;101083.69;4985195;28;20022;-76
2024/01/10 10:37:38;;;;;;;0.70;0.70;;;;;;;12.71;33.17;101106.19;4985567;28;20030;-77
2024/01/10 10:40:06;;;;;;;0.80;0.80;;;;;;;12.77;33.09;101084.66;4983905;28;20552;-76
2024/01/10 10:42:32;;;;;;;0.90;0.90;;;;;;;13.09;33.32;101100.81;4987665;28;20042;-76
2024/01/10 10:45:03;;;;;;;0.80;0.80;;;;;;;13.21;32.58;101071.06;5005636;28;20030;-73
2024/01/10 10:47:37;;;;;;;0.70;0.70;;;;;;;13.36;32.41;101098.31;4989812;28;20104;-76
2024/01/10 10:50:04;;;;;;;0.77;0.77;;;;;;;12.24;32.45;101038.81;4985882;28;20030;-77
2024/01/10 10:52:31;;;;;;;0.80;0.80;;;;;;;12.50;32.98;101089.78;4991026;28;20037;-76
2024/01/10 10:54:59;;;;;;;0.70;0.70;;;;;;;12.37;34.14;101097.19;4995985;28;20064;-75
2024/01/10 10:57:26;;;;;;;0.80;0.80;;;;;;;12.56;33.17;101066.50;4987179;28;20507;-76
2024/01/10 10:59:53;;;;;;;0.70;0.70;;;;;;;12.68;33.33;101052.88;5001508;28;20084;-75
2024/01/10 11:02:24;;;;;;;0.70;0.70;;;;;;;12.77;33.35;101082.00;4975208;28;20394;-76
2024/01/10 11:04:50;;;;;;;0.70;0.70;;;;;;;12.90;33.75;101085.22;4990875;28;20033;-77
2024/01/10 11:07:15;;;;;;;0.80;0.80;;;;;;;12.96;33.26;101090.44;4970288;28;20026;-76
2024/01/10 11:09:45;;;;;;;0.73;0.73;;;;;;;13.21;32.59;101087.09;4991874;28;20117;-75
2024/01/10 11:12:23;;;;;;;0.70;0.70;;;;;;;12.99;33.73;101085.91;4989143;28;20150;-73
2024/01/10 11:15:02;;;;;;;0.60;0.60;;;;;;;13.07;33.50;101094.63;4991657;28;20133;-77
2024/01/10 11:17:50;;;;;;;0.60;0.60;;;;;;;13.53;33.29;101091.59;4986394;28;20030;-78
2024/01/10 11:20:53;;;;;;;0.70;0.70;;;;;;;13.79;32.01;101089.06;4968870;28;20031;-78
2024/01/10 11:23:37;;;;;;;0.60;0.60;;;;;;;13.71;32.18;101092.88;4969018;28;20057;-80